Time;durP1;ratioP1;P1;durP2;ratioP2;P2;SDS_P1;SDS_P2;PMS_P1;PMS_P2;Temp;Humidity;BMP_temperature;BMP_pressure;BME280_temperature;BME280_humidity;BME280_pressure;Samples;Min_cycle;Max_cycle;Signal;HPM_P1;HPM_P2
2023/01/10 00:00:26;;;;;;;16.83;9.18;;;;;;;;;;5001035;28;20439;-69
2023/01/10 00:02:52;;;;;;;21.10;9.45;;;;;;;;;;4993089;28;20447;-69
2023/01/10 00:05:17;;;;;;;20.48;8.82;;;;;;;;;;5009508;28;20051;-70
2023/01/10 00:07:43;;;;;;;18.40;9.48;;;;;;;;;;5003061;28;20026;-67
2023/01/10 00:10:10;;;;;;;18.00;9.38;;;;;;;;;;4996650;28;20033;-69
2023/01/10 00:15:20;;;;;;;13.93;6.85;;;;;;;;;;5006102;28;20087;-68
2023/01/10 00:17:45;;;;;;;14.55;7.55;;;;;;;;;;4998812;28;20033;-69
2023/01/10 00:20:11;;;;;;;14.20;8.38;;;;;;;;;;5015906;28;20034;-67
2023/01/10 00:22:36;;;;;;;13.32;7.85;;;;;;;;;;4999288;28;20466;-68
2023/01/10 00:25:02;;;;;;;12.77;7.53;;;;;;;;;;5010081;28;20438;-67
2023/01/10 00:27:27;;;;;;;11.80;6.60;;;;;;;;;;5004942;28;20037;-68
2023/01/10 00:29:53;;;;;;;12.88;6.57;;;;;;;;;;5003353;28;20026;-68
2023/01/10 00:32:20;;;;;;;10.15;6.13;;;;;;;;;;4995807;28;20030;-68
2023/01/10 00:34:45;;;;;;;10.95;6.20;;;;;;;;;;5011626;28;20022;-67
2023/01/10 00:37:11;;;;;;;12.25;6.70;;;;;;;;;;4999810;28;20598;-67
2023/01/10 00:39:36;;;;;;;12.20;5.80;;;;;;;;;;5015606;28;20022;-67
2023/01/10 00:44:46;;;;;;;11.35;6.07;;;;;;;;;;4984999;28;20032;-67
2023/01/10 00:47:12;;;;;;;9.75;5.82;;;;;;;;;;5007512;28;20038;-68
2023/01/10 00:49:38;;;;;;;11.50;6.10;;;;;;;;;;5011458;28;20041;-68
2023/01/10 00:52:04;;;;;;;12.25;5.80;;;;;;;;;;5015200;28;20041;-67
2023/01/10 00:54:29;;;;;;;11.13;5.68;;;;;;;;;;5015113;28;20105;-67
2023/01/10 00:56:55;;;;;;;9.15;5.88;;;;;;;;;;5015049;28;20470;-67
2023/01/10 00:59:21;;;;;;;11.40;6.22;;;;;;;;;;4998918;28;20022;-67
2023/01/10 01:01:47;;;;;;;10.15;5.32;;;;;;;;;;5008433;28;20029;-67
2023/01/10 01:04:12;;;;;;;13.50;6.15;;;;;;;;;;5005038;28;20116;-68
2023/01/10 01:06:38;;;;;;;8.77;5.07;;;;;;;;;;5001445;28;20030;-67
2023/01/10 01:09:03;;;;;;;7.80;4.97;;;;;;;;;;5012014;28;20130;-68
2023/01/10 01:11:28;;;;;;;9.07;5.53;;;;;;;;;;5014968;28;20462;-67
2023/01/10 01:13:54;;;;;;;9.60;5.50;;;;;;;;;;5010835;28;20026;-67
2023/01/10 01:16:20;;;;;;;10.48;5.63;;;;;;;;;;5002413;28;20029;-71
2023/01/10 01:18:45;;;;;;;9.98;5.25;;;;;;;;;;5003498;28;20027;-67
2023/01/10 01:21:11;;;;;;;9.20;5.65;;;;;;;;;;5009396;28;20034;-67
2023/01/10 01:23:37;;;;;;;10.27;5.22;;;;;;;;;;4998112;28;20464;-67
2023/01/10 01:26:02;;;;;;;8.20;5.38;;;;;;;;;;5009395;28;20029;-68
2023/01/10 01:28:28;;;;;;;8.80;5.60;;;;;;;;;;5003156;28;20160;-67
2023/01/10 01:30:53;;;;;;;7.93;5.15;;;;;;;;;;5002553;28;20022;-67
2023/01/10 01:33:19;;;;;;;10.10;5.93;;;;;;;;;;4991650;28;20058;-67
2023/01/10 01:35:46;;;;;;;8.65;5.43;;;;;;;;;;4989491;28;20031;-67
2023/01/10 01:38:12;;;;;;;10.45;5.10;;;;;;;;;;4986877;28;20384;-68
2023/01/10 01:40:40;;;;;;;9.02;5.10;;;;;;;;;;4988303;28;20030;-67
2023/01/10 01:43:26;;;;;;;7.93;5.28;;;;;;;;;;4986861;28;20031;-68
2023/01/10 01:45:52;;;;;;;8.32;4.90;;;;;;;;;;4982149;28;20487;-67
2023/01/10 01:48:27;;;;;;;9.18;5.00;;;;;;;;;;5011672;28;20092;-67
2023/01/10 01:51:16;;;;;;;8.75;5.10;;;;;;;;;;4990411;28;20404;-67
2023/01/10 01:53:46;;;;;;;8.30;5.05;;;;;;;;;;4991331;28;20464;-69
2023/01/10 01:56:16;;;;;;;8.32;4.65;;;;;;;;;;4988323;28;20030;-69
2023/01/10 01:58:53;;;;;;;;;;;;;;;;;;4988089;28;20162;-69
2023/01/10 02:01:19;;;;;;;9.35;5.00;;;;;;;;;;4985957;28;20345;-69
2023/01/10 02:03:50;;;;;;;9.60;5.50;;;;;;;;;;4987101;28;20030;-69
2023/01/10 02:06:15;;;;;;;;;;;;;;;;;;4984735;28;20030;-69
2023/01/10 02:08:46;;;;;;;9.75;4.57;;;;;;;;;;4985170;28;19913;-69
2023/01/10 02:11:11;;;;;;;7.88;4.88;;;;;;;;;;4986032;28;20383;-69
2023/01/10 02:13:40;;;;;;;10.35;5.30;;;;;;;;;;4985303;28;20030;-69
2023/01/10 02:16:07;;;;;;;7.13;4.60;;;;;;;;;;4984145;28;20468;-69
2023/01/10 02:18:34;;;;;;;8.68;5.15;;;;;;;;;;4985844;28;20480;-69
2023/01/10 02:21:17;;;;;;;11.40;5.22;;;;;;;;;;4984449;28;20374;-69
2023/01/10 02:24:04;;;;;;;10.88;5.00;;;;;;;;;;4988005;28;20030;-69
2023/01/10 02:26:50;;;;;;;9.57;5.35;;;;;;;;;;4988076;28;20118;-69
2023/01/10 02:29:54;;;;;;;9.45;5.20;;;;;;;;;;4985907;28;20019;-69
2023/01/10 02:32:39;;;;;;;7.47;5.00;;;;;;;;;;4963288;28;20054;-69
2023/01/10 02:35:14;;;;;;;9.23;5.40;;;;;;;;;;4968318;28;20082;-69
2023/01/10 02:37:51;;;;;;;8.43;4.75;;;;;;;;;;4954104;28;20492;-69
2023/01/10 02:40:33;;;;;;;9.98;5.80;;;;;;;;;;4952225;28;20202;-68
2023/01/10 02:43:09;;;;;;;8.20;5.10;;;;;;;;;;4971094;28;20047;-69
2023/01/10 02:45:43;;;;;;;9.18;5.45;;;;;;;;;;4971922;28;20027;-69
2023/01/10 02:48:09;;;;;;;8.18;5.05;;;;;;;;;;4956122;28;20047;-69
2023/01/10 02:50:48;;;;;;;11.65;5.28;;;;;;;;;;4971718;28;20092;-69
2023/01/10 02:53:23;;;;;;;7.90;5.20;;;;;;;;;;4958996;28;20039;-69
2023/01/10 02:56:22;;;;;;;9.48;4.95;;;;;;;;;;4968251;28;20169;-69
2023/01/10 02:59:03;;;;;;;6.68;4.88;;;;;;;;;;4961592;28;20039;-69
2023/01/10 03:01:41;;;;;;;8.10;4.93;;;;;;;;;;4956689;28;20035;-69
2023/01/10 03:04:40;;;;;;;10.63;5.68;;;;;;;;;;4952145;29;20083;-69
2023/01/10 03:07:13;;;;;;;9.05;5.28;;;;;;;;;;4964209;28;20043;-69
2023/01/10 03:10:13;;;;;;;8.15;5.15;;;;;;;;;;4972480;28;20047;-69
2023/01/10 03:12:55;;;;;;;8.77;5.47;;;;;;;;;;5001086;28;20041;-69
2023/01/10 03:15:23;;;;;;;10.48;5.47;;;;;;;;;;4998455;28;20030;-69
2023/01/10 03:17:54;;;;;;;8.60;4.80;;;;;;;;;;5009173;28;20028;-69
2023/01/10 03:20:21;;;;;;;10.55;5.38;;;;;;;;;;4998859;28;20426;-69
2023/01/10 03:22:47;;;;;;;7.85;5.13;;;;;;;;;;5002858;28;20037;-69
2023/01/10 03:25:14;;;;;;;7.47;4.88;;;;;;;;;;5005898;28;20038;-69
2023/01/10 03:28:22;;;;;;;10.18;5.22;;;;;;;;;;4995938;28;20113;-69
2023/01/10 03:31:01;;;;;;;10.00;5.53;;;;;;;;;;5002780;28;20098;-69
2023/01/10 03:33:31;;;;;;;7.50;5.03;;;;;;;;;;5007617;28;20021;-69
2023/01/10 03:36:05;;;;;;;;;;;;;;;;;;4996307;28;20025;-69
2023/01/10 03:38:46;;;;;;;8.52;5.53;;;;;;;;;;5003699;28;19914;-69
2023/01/10 03:41:25;;;;;;;;;;;;;;;;;;5006001;28;20032;-69
2023/01/10 03:44:43;;;;;;;11.18;6.15;;;;;;;;;;4995694;28;19991;-69
2023/01/10 03:47:28;;;;;;;11.00;6.15;;;;;;;;;;4958662;28;20059;-69
2023/01/10 03:49:57;;;;;;;10.00;6.05;;;;;;;;;;4970050;28;20027;-69
2023/01/10 03:52:24;;;;;;;9.07;5.82;;;;;;;;;;4968674;28;20047;-69
2023/01/10 03:54:50;;;;;;;10.35;5.43;;;;;;;;;;4965457;28;20129;-69
2023/01/10 03:57:17;;;;;;;11.13;5.45;;;;;;;;;;4961508;28;20031;-69
2023/01/10 03:59:43;;;;;;;10.85;6.22;;;;;;;;;;4971325;28;20480;-69
2023/01/10 04:02:08;;;;;;;11.02;5.68;;;;;;;;;;4955686;29;20023;-69
2023/01/10 04:04:34;;;;;;;12.70;6.85;;;;;;;;;;4963027;28;20147;-69
2023/01/10 04:06:59;;;;;;;16.52;7.70;;;;;;;;;;4963622;28;20118;-69
2023/01/10 04:09:24;;;;;;;11.48;6.85;;;;;;;;;;4955325;29;20055;-69
2023/01/10 04:11:50;;;;;;;10.00;6.40;;;;;;;;;;4972768;28;20027;-69
2023/01/10 04:14:15;;;;;;;12.30;6.70;;;;;;;;;;4973488;28;20034;-69
2023/01/10 04:16:41;;;;;;;11.48;6.88;;;;;;;;;;4957157;28;20090;-69
2023/01/10 04:19:06;;;;;;;9.50;6.38;;;;;;;;;;4969430;28;20035;-69
2023/01/10 04:21:32;;;;;;;13.63;6.45;;;;;;;;;;4954988;28;20023;-69
2023/01/10 04:23:57;;;;;;;8.60;5.93;;;;;;;;;;4984985;28;20042;-69
2023/01/10 04:26:22;;;;;;;8.10;5.53;;;;;;;;;;5007303;28;20057;-69
2023/01/10 04:28:48;;;;;;;15.25;6.50;;;;;;;;;;5015825;28;20037;-69
2023/01/10 04:31:13;;;;;;;9.40;5.82;;;;;;;;;;5015759;28;20084;-69
2023/01/10 04:33:40;;;;;;;8.90;5.93;;;;;;;;;;4996044;28;20069;-69
2023/01/10 04:36:06;;;;;;;10.70;6.82;;;;;;;;;;4995842;28;20034;-69
2023/01/10 04:38:31;;;;;;;13.23;7.40;;;;;;;;;;5004489;28;20026;-69
2023/01/10 04:40:57;;;;;;;11.70;6.90;;;;;;;;;;5015202;28;20084;-69
2023/01/10 04:43:24;;;;;;;10.40;6.78;;;;;;;;;;5015157;28;20068;-69
2023/01/10 04:45:49;;;;;;;10.10;6.38;;;;;;;;;;4998708;28;20041;-69
2023/01/10 04:48:15;;;;;;;11.85;7.65;;;;;;;;;;5006908;28;20042;-69
2023/01/10 04:50:40;;;;;;;11.82;6.82;;;;;;;;;;5015164;28;20030;-69
2023/01/10 04:53:06;;;;;;;11.35;7.38;;;;;;;;;;4998892;28;20069;-69
2023/01/10 04:55:33;;;;;;;13.60;7.55;;;;;;;;;;5011107;28;20045;-69
2023/01/10 04:57:59;;;;;;;13.93;8.27;;;;;;;;;;4995528;28;20038;-69
2023/01/10 05:00:24;;;;;;;12.75;7.50;;;;;;;;;;4995577;28;20085;-69
2023/01/10 05:02:55;;;;;;;12.50;7.68;;;;;;;;;;5011068;28;20037;-69
2023/01/10 05:05:20;;;;;;;15.40;9.10;;;;;;;;;;5015083;28;20491;-69
2023/01/10 05:07:46;;;;;;;16.73;9.20;;;;;;;;;;5009086;28;20041;-69
2023/01/10 05:10:12;;;;;;;15.90;8.77;;;;;;;;;;4995187;28;20101;-69
2023/01/10 05:12:37;;;;;;;15.32;8.77;;;;;;;;;;4995062;28;20282;-69
2023/01/10 05:15:03;;;;;;;15.45;9.75;;;;;;;;;;5009794;28;20026;-69
2023/01/10 05:17:29;;;;;;;17.23;9.68;;;;;;;;;;5014872;28;20026;-69
2023/01/10 05:19:54;;;;;;;16.48;9.90;;;;;;;;;;5010355;28;20022;-69
2023/01/10 05:22:19;;;;;;;17.90;9.68;;;;;;;;;;5002640;28;20084;-69
2023/01/10 05:24:45;;;;;;;16.42;9.82;;;;;;;;;;5003304;28;20527;-69
2023/01/10 05:27:10;;;;;;;18.35;10.77;;;;;;;;;;5009497;28;20125;-69
2023/01/10 05:29:36;;;;;;;45.10;31.60;;;;;;;;;;4996499;28;20026;-69
2023/01/10 05:32:01;;;;;;;19.35;10.77;;;;;;;;;;5004816;28;20029;-69
2023/01/10 05:34:27;;;;;;;16.50;8.93;;;;;;;;;;5014582;28;20379;-69
2023/01/10 05:37:08;;;;;;;17.92;9.95;;;;;;;;;;5014467;28;20030;-69
2023/01/10 05:39:34;;;;;;;17.20;9.30;;;;;;;;;;4984835;28;20452;-69
2023/01/10 05:41:59;;;;;;;17.88;10.88;;;;;;;;;;4987594;28;20076;-69
2023/01/10 05:44:25;;;;;;;19.10;9.88;;;;;;;;;;5014300;28;20029;-69
2023/01/10 05:46:50;;;;;;;20.10;10.98;;;;;;;;;;5005827;28;20081;-69
2023/01/10 05:49:16;;;;;;;23.38;12.88;;;;;;;;;;5007297;28;20506;-69
2023/01/10 05:51:41;;;;;;;28.75;13.05;;;;;;;;;;4999169;28;20158;-69
2023/01/10 05:54:07;;;;;;;32.75;14.85;;;;;;;;;;5010109;28;20431;-69
2023/01/10 05:56:32;;;;;;;30.30;14.68;;;;;;;;;;4994545;28;20065;-69
2023/01/10 05:58:58;;;;;;;23.13;11.02;;;;;;;;;;4999863;28;20057;-69
2023/01/10 06:01:24;;;;;;;17.23;8.77;;;;;;;;;;5013810;28;20056;-69
2023/01/10 06:03:49;;;;;;;19.02;8.88;;;;;;;;;;5006233;28;20455;-69
2023/01/10 06:06:14;;;;;;;23.42;10.88;;;;;;;;;;4994070;28;20026;-69
2023/01/10 06:08:40;;;;;;;25.05;11.55;;;;;;;;;;4993978;28;20026;-69
2023/01/10 06:11:06;;;;;;;35.88;15.18;;;;;;;;;;5012665;28;20026;-69
2023/01/10 06:13:32;;;;;;;29.30;11.55;;;;;;;;;;5012897;28;20108;-69
2023/01/10 06:15:57;;;;;;;17.40;8.77;;;;;;;;;;5005309;28;20018;-69
2023/01/10 06:18:23;;;;;;;15.15;9.05;;;;;;;;;;4993999;28;20034;-69
2023/01/10 06:20:48;;;;;;;16.67;9.43;;;;;;;;;;4994030;28;20040;-69
2023/01/10 06:23:14;;;;;;;13.18;7.97;;;;;;;;;;5009750;28;20153;-69
2023/01/10 06:25:40;;;;;;;16.67;8.55;;;;;;;;;;4997139;28;20068;-69
2023/01/10 06:28:07;;;;;;;71.80;22.55;;;;;;;;;;5006247;28;20030;-69
2023/01/10 06:30:34;;;;;;;57.97;19.98;;;;;;;;;;5004371;28;20022;-69
2023/01/10 06:33:01;;;;;;;50.45;16.65;;;;;;;;;;5004812;28;20132;-69
2023/01/10 06:35:27;;;;;;;51.88;18.30;;;;;;;;;;4993785;28;20475;-69
2023/01/10 06:37:52;;;;;;;57.20;19.23;;;;;;;;;;4993342;28;20033;-69
2023/01/10 06:40:18;;;;;;;45.83;16.13;;;;;;;;;;5010423;28;20030;-69
2023/01/10 06:42:43;;;;;;;23.30;11.25;;;;;;;;;;5013148;28;20510;-69
2023/01/10 06:45:09;;;;;;;48.92;17.40;;;;;;;;;;5003849;28;20026;-69
2023/01/10 06:47:35;;;;;;;50.28;18.15;;;;;;;;;;4993430;28;20492;-69
2023/01/10 06:50:00;;;;;;;39.40;15.43;;;;;;;;;;5012084;28;20080;-69
2023/01/10 06:52:26;;;;;;;38.35;15.75;;;;;;;;;;5008794;28;20062;-69
2023/01/10 06:54:52;;;;;;;40.47;15.70;;;;;;;;;;5000688;28;20026;-69
2023/01/10 06:57:17;;;;;;;25.17;11.80;;;;;;;;;;5001743;28;20345;-69
2023/01/10 06:59:43;;;;;;;23.92;12.13;;;;;;;;;;5007638;28;20117;-69
2023/01/10 07:02:10;;;;;;;30.98;13.77;;;;;;;;;;5005740;28;20105;-68
2023/01/10 07:04:36;;;;;;;28.95;13.45;;;;;;;;;;4993057;28;20026;-69
2023/01/10 07:07:01;;;;;;;27.60;13.43;;;;;;;;;;4994586;28;20476;-69
2023/01/10 07:09:27;;;;;;;25.65;12.30;;;;;;;;;;5012489;28;20022;-69
2023/01/10 07:11:53;;;;;;;28.45;13.68;;;;;;;;;;5012565;28;20479;-68
2023/01/10 07:14:18;;;;;;;26.98;12.90;;;;;;;;;;4995488;28;20037;-69
2023/01/10 07:16:43;;;;;;;23.35;11.38;;;;;;;;;;4993127;28;20025;-69
2023/01/10 07:19:12;;;;;;;18.92;10.38;;;;;;;;;;5003274;28;20025;-69
2023/01/10 07:21:37;;;;;;;16.92;9.05;;;;;;;;;;4998035;28;20034;-69
2023/01/10 07:24:03;;;;;;;17.13;8.98;;;;;;;;;;5008685;28;20036;-69
2023/01/10 07:26:28;;;;;;;17.73;9.50;;;;;;;;;;4997756;28;20026;-69
2023/01/10 07:28:54;;;;;;;16.52;9.32;;;;;;;;;;5003775;28;20021;-69
2023/01/10 07:31:22;;;;;;;42.42;15.60;;;;;;;;;;4992842;28;20089;-69
2023/01/10 07:33:49;;;;;;;160.98;37.45;;;;;;;;;;5007288;28;20442;-69
2023/01/10 07:36:14;;;;;;;92.70;24.80;;;;;;;;;;5012171;28;20048;-69
2023/01/10 07:38:40;;;;;;;90.40;25.30;;;;;;;;;;5003212;28;20467;-69
2023/01/10 07:41:05;;;;;;;85.00;25.13;;;;;;;;;;4992874;28;20488;-69
2023/01/10 07:43:31;;;;;;;40.35;15.20;;;;;;;;;;4994607;28;20529;-69
2023/01/10 07:45:59;;;;;;;46.55;16.48;;;;;;;;;;5012117;28;20037;-69
2023/01/10 07:48:25;;;;;;;37.08;15.52;;;;;;;;;;5003696;28;20123;-69
2023/01/10 07:50:54;;;;;;;24.77;11.57;;;;;;;;;;5010844;28;20526;-69
2023/01/10 07:53:20;;;;;;;29.07;13.23;;;;;;;;;;4997941;28;20155;-69
2023/01/10 07:55:45;;;;;;;28.10;12.98;;;;;;;;;;5003542;28;20034;-69
2023/01/10 07:58:11;;;;;;;36.58;18.58;;;;;;;;;;4992754;28;20472;-69
2023/01/10 08:00:36;;;;;;;30.52;14.63;;;;;;;;;;4993885;28;20379;-69
2023/01/10 08:03:02;;;;;;;29.42;14.80;;;;;;;;;;4992303;28;20034;-69
2023/01/10 08:05:27;;;;;;;32.22;15.65;;;;;;;;;;4998185;28;20038;-69
2023/01/10 08:07:55;;;;;;;22.98;12.05;;;;;;;;;;5012219;28;20104;-69
2023/01/10 08:10:20;;;;;;;24.13;11.77;;;;;;;;;;5012124;28;20037;-69
2023/01/10 08:12:47;;;;;;;24.45;12.25;;;;;;;;;;4995673;28;20022;-69
2023/01/10 08:15:12;;;;;;;27.95;13.88;;;;;;;;;;4992612;28;20092;-69
2023/01/10 08:17:38;;;;;;;21.52;11.57;;;;;;;;;;4995705;28;20418;-69
2023/01/10 08:20:03;;;;;;;29.98;13.23;;;;;;;;;;4991831;28;20126;-69
2023/01/10 08:22:29;;;;;;;20.88;10.63;;;;;;;;;;4993217;28;20025;-69
2023/01/10 08:24:54;;;;;;;41.50;16.15;;;;;;;;;;5012089;28;20093;-69
2023/01/10 08:27:19;;;;;;;40.03;17.58;;;;;;;;;;5011927;28;20026;-69
2023/01/10 08:29:45;;;;;;;29.73;13.93;;;;;;;;;;5001855;28;20045;-69
2023/01/10 08:32:11;;;;;;;22.05;11.35;;;;;;;;;;4992182;28;20499;-69
2023/01/10 08:34:36;;;;;;;32.03;15.75;;;;;;;;;;5008337;28;20018;-69
2023/01/10 08:37:02;;;;;;;27.58;14.05;;;;;;;;;;4998928;28;20014;-69
2023/01/10 08:39:29;;;;;;;20.75;10.95;;;;;;;;;;5005567;28;20038;-68
2023/01/10 08:41:56;;;;;;;30.35;13.45;;;;;;;;;;4995512;28;20029;-69
2023/01/10 08:44:21;;;;;;;20.08;11.68;;;;;;;;;;4995948;28;20035;-69
2023/01/10 08:46:48;;;;;;;20.38;11.32;;;;;;;;;;5009810;28;20553;-69
2023/01/10 08:49:13;;;;;;;19.95;10.98;;;;;;;;;;5015198;28;20034;-68
2023/01/10 08:51:39;;;;;;;21.95;10.85;;;;;;;;;;5015136;28;20037;-69
2023/01/10 08:54:04;;;;;;;16.92;10.10;;;;;;;;;;5015139;28;20395;-69
2023/01/10 08:56:30;;;;;;;20.60;11.32;;;;;;;;;;5009293;28;20037;-69
2023/01/10 08:58:55;;;;;;;23.52;11.27;;;;;;;;;;4995542;28;20022;-69
2023/01/10 09:01:21;;;;;;;18.75;10.45;;;;;;;;;;5005338;28;20034;-68
2023/01/10 09:03:48;;;;;;;19.35;10.77;;;;;;;;;;5001345;28;20019;-69
2023/01/10 09:06:14;;;;;;;18.90;10.20;;;;;;;;;;5011326;28;20156;-69
2023/01/10 09:08:39;;;;;;;23.13;10.90;;;;;;;;;;4999769;28;20112;-69
2023/01/10 09:11:05;;;;;;;15.32;9.90;;;;;;;;;;5015093;28;20052;-69
2023/01/10 09:13:31;;;;;;;21.38;11.15;;;;;;;;;;5009658;28;20030;-69
2023/01/10 09:15:57;;;;;;;17.75;10.25;;;;;;;;;;4993918;28;20074;-68
2023/01/10 09:18:24;;;;;;;22.33;10.45;;;;;;;;;;5009056;28;20371;-69
2023/01/10 09:20:50;;;;;;;18.83;9.90;;;;;;;;;;4998495;28;20502;-69
2023/01/10 09:23:18;;;;;;;19.67;10.25;;;;;;;;;;5009772;28;20554;-69
2023/01/10 09:25:50;;;;;;;20.23;11.18;;;;;;;;;;4994238;28;20036;-69
2023/01/10 09:28:16;;;;;;;20.80;10.20;;;;;;;;;;4993229;28;20369;-69
2023/01/10 09:30:43;;;;;;;19.02;11.13;;;;;;;;;;4993585;28;20420;-69
2023/01/10 09:33:09;;;;;;;20.23;10.15;;;;;;;;;;4987086;28;20030;-69
2023/01/10 09:35:36;;;;;;;17.55;10.27;;;;;;;;;;4994878;28;20026;-69
2023/01/10 09:38:03;;;;;;;26.90;11.88;;;;;;;;;;4994669;28;20032;-69
2023/01/10 09:40:50;;;;;;;16.50;9.68;;;;;;;;;;4994932;28;20544;-69
2023/01/10 09:43:42;;;;;;;15.82;9.38;;;;;;;;;;5007977;28;20040;-69
2023/01/10 09:46:33;;;;;;;22.20;10.00;;;;;;;;;;4998291;28;20026;-69
2023/01/10 09:49:30;;;;;;;21.75;9.73;;;;;;;;;;5007166;28;20052;-69
2023/01/10 09:51:57;;;;;;;19.30;9.00;;;;;;;;;;5005038;28;20034;-69
2023/01/10 09:54:27;;;;;;;18.15;8.98;;;;;;;;;;5006635;28;20066;-69
2023/01/10 09:56:54;;;;;;;20.02;9.80;;;;;;;;;;4997703;28;20484;-69
2023/01/10 09:59:30;;;;;;;17.45;9.30;;;;;;;;;;4998227;28;20025;-69
2023/01/10 10:02:03;;;;;;;15.57;9.23;;;;;;;;;;5014090;28;20030;-68
2023/01/10 10:04:39;;;;;;;26.42;10.48;;;;;;;;;;5014224;28;20521;-69
2023/01/10 10:07:13;;;;;;;23.35;10.88;;;;;;;;;;4994952;28;20035;-69
2023/01/10 10:09:39;;;;;;;21.50;9.55;;;;;;;;;;4994185;28;20072;-69
2023/01/10 10:12:28;;;;;;;17.60;9.10;;;;;;;;;;5013370;28;20120;-69
2023/01/10 10:15:14;;;;;;;16.45;8.68;;;;;;;;;;5013810;28;20030;-68
2023/01/10 10:17:52;;;;;;;20.02;8.23;;;;;;;;;;4974556;28;20065;-69
2023/01/10 10:20:57;;;;;;;22.75;9.43;;;;;;;;;;4991625;28;20022;-69
2023/01/10 10:23:54;;;;;;;19.38;9.07;;;;;;;;;;4956279;28;20043;-68
2023/01/10 10:26:36;;;;;;;17.52;7.60;;;;;;;;;;4887376;29;20045;-68
2023/01/10 10:29:38;;;;;;;19.88;6.85;;;;;;;;;;4890903;29;20127;-67
2023/01/10 10:32:25;;;;;;;11.63;5.22;;;;;;;;;;4877097;29;20037;-67
2023/01/10 10:35:02;;;;;;;23.63;11.43;;;;;;;;;;4877551;29;20120;-67
2023/01/10 10:37:34;;;;;;;13.15;6.15;;;;;;;;;;4892584;29;20116;-67
2023/01/10 10:40:04;;;;;;;13.45;5.72;;;;;;;;;;4882039;29;20128;-67
2023/01/10 10:42:33;;;;;;;16.95;7.47;;;;;;;;;;4877710;29;20055;-67
2023/01/10 10:45:45;;;;;;;22.33;9.03;;;;;;;;;;4895821;29;20028;-67
2023/01/10 10:48:21;;;;;;;15.13;6.30;;;;;;;;;;4862794;29;20056;-67
2023/01/10 10:51:13;;;;;;;16.60;5.97;;;;;;;;;;4886551;29;20115;-67
2023/01/10 10:53:39;;;;;;;19.50;6.95;;;;;;;;;;4879494;29;20598;-67
2023/01/10 10:56:10;;;;;;;22.02;11.77;;;;;;;;;;4895524;29;20136;-67
2023/01/10 10:58:38;;;;;;;16.10;5.93;;;;;;;;;;4899468;29;20103;-67
2023/01/10 11:01:04;;;;;;;12.68;4.50;;;;;;;;;;4925394;28;20046;-67
2023/01/10 11:03:35;;;;;;;13.60;4.90;;;;;;;;;;4998127;28;20109;-67
2023/01/10 11:06:01;;;;;;;13.38;4.88;;;;;;;;;;5012750;28;20022;-68
2023/01/10 11:08:29;;;;;;;13.68;4.00;;;;;;;;;;5012052;28;20037;-67
2023/01/10 11:10:57;;;;;;;12.55;4.95;;;;;;;;;;4993211;28;20026;-68
2023/01/10 11:13:42;;;;;;;14.05;5.78;;;;;;;;;;4992892;28;20034;-68
2023/01/10 11:16:27;;;;;;;19.90;7.90;;;;;;;;;;4973801;28;20033;-67
2023/01/10 11:19:08;;;;;;;10.70;5.50;;;;;;;;;;5001271;28;20034;-67
2023/01/10 11:21:34;;;;;;;13.27;4.35;;;;;;;;;;4981191;28;20121;-67
2023/01/10 11:24:00;;;;;;;15.10;4.75;;;;;;;;;;5005078;28;20441;-67
2023/01/10 11:26:33;;;;;;;17.58;5.85;;;;;;;;;;5003627;28;20065;-67
2023/01/10 11:29:06;;;;;;;10.98;4.43;;;;;;;;;;5012306;28;20025;-67
2023/01/10 11:31:33;;;;;;;13.20;4.20;;;;;;;;;;5003334;28;20026;-67
2023/01/10 11:34:15;;;;;;;14.07;4.72;;;;;;;;;;4992734;28;20087;-67
2023/01/10 11:36:56;;;;;;;9.77;4.40;;;;;;;;;;5004482;28;20030;-67
2023/01/10 11:39:22;;;;;;;13.82;4.70;;;;;;;;;;5007381;28;20058;-67
2023/01/10 11:41:48;;;;;;;11.30;3.97;;;;;;;;;;4998637;28;20065;-67
2023/01/10 11:44:28;;;;;;;14.77;5.88;;;;;;;;;;5006306;28;20038;-67
2023/01/10 11:46:56;;;;;;;9.00;3.80;;;;;;;;;;5002198;28;20125;-67
2023/01/10 11:49:36;;;;;;;10.93;3.60;;;;;;;;;;5011955;28;20479;-68
2023/01/10 11:52:20;;;;;;;8.48;3.20;;;;;;;;;;5009022;28;20027;-67
2023/01/10 11:54:46;;;;;;;13.48;4.03;;;;;;;;;;5001286;28;20061;-68
2023/01/10 11:57:16;;;;;;;9.07;4.00;;;;;;;;;;5012216;28;20030;-68
2023/01/10 12:00:01;;;;;;;14.50;4.20;;;;;;;;;;5003659;28;20030;-68
2023/01/10 12:02:30;;;;;;;13.05;3.65;;;;;;;;;;4992533;28;20023;-68
2023/01/10 12:04:59;;;;;;;7.53;3.20;;;;;;;;;;5008638;28;20378;-68
2023/01/10 12:07:24;;;;;;;9.90;3.50;;;;;;;;;;4997815;28;20125;-67
2023/01/10 12:09:54;;;;;;;14.45;4.25;;;;;;;;;;5002488;28;20483;-67
2023/01/10 12:12:29;;;;;;;13.82;4.07;;;;;;;;;;5006187;28;20038;-67
2023/01/10 12:14:57;;;;;;;10.88;4.28;;;;;;;;;;5016054;28;20030;-67
2023/01/10 12:17:30;;;;;;;13.55;3.88;;;;;;;;;;5002639;28;20395;-68
2023/01/10 12:19:59;;;;;;;10.63;4.25;;;;;;;;;;4996088;28;20168;-68
2023/01/10 12:22:44;;;;;;;13.07;4.03;;;;;;;;;;5009410;28;20455;-67
2023/01/10 12:25:31;;;;;;;9.45;3.33;;;;;;;;;;5015548;28;20506;-67
2023/01/10 12:27:59;;;;;;;7.65;3.60;;;;;;;;;;5001240;28;20491;-67
2023/01/10 12:30:38;;;;;;;11.82;3.85;;;;;;;;;;5000711;28;20032;-67
2023/01/10 12:33:12;;;;;;;12.10;4.25;;;;;;;;;;5012793;28;20126;-67
2023/01/10 12:36:04;;;;;;;10.30;4.00;;;;;;;;;;5002923;28;20048;-67
2023/01/10 12:44:40;;;;;;;9.05;3.22;;;;;;;;;;4974215;28;20086;-67
2023/01/10 12:47:23;;;;;;;12.00;4.53;;;;;;;;;;4971636;28;20062;-67
2023/01/10 12:49:57;;;;;;;21.55;5.30;;;;;;;;;;4954548;29;20497;-67
2023/01/10 12:52:44;;;;;;;12.38;4.35;;;;;;;;;;4969415;28;20381;-67
2023/01/10 12:55:14;;;;;;;13.95;4.57;;;;;;;;;;4973864;28;20041;-67
2023/01/10 12:57:41;;;;;;;;;;;;;;;;;;4960700;28;20035;-67
2023/01/10 13:00:23;;;;;;;14.13;6.20;;;;;;;;;;4954719;29;20415;-67
2023/01/10 13:02:53;;;;;;;14.00;4.85;;;;;;;;;;4954593;29;20054;-67
2023/01/10 13:05:24;;;;;;;14.13;4.80;;;;;;;;;;4954594;29;20039;-68
2023/01/10 13:07:53;;;;;;;12.10;3.08;;;;;;;;;;4963795;28;20043;-68
2023/01/10 13:10:23;;;;;;;9.88;2.72;;;;;;;;;;4960194;28;20038;-69
2023/01/10 13:13:10;;;;;;;11.48;3.00;;;;;;;;;;4963005;28;20043;-68
2023/01/10 13:15:40;;;;;;;10.23;2.60;;;;;;;;;;4954503;28;20082;-68
2023/01/10 13:18:33;;;;;;;7.43;2.85;;;;;;;;;;4954717;29;20036;-68
2023/01/10 13:21:12;;;;;;;9.52;2.35;;;;;;;;;;4985444;28;20044;-68
2023/01/10 13:23:59;;;;;;;9.00;2.50;;;;;;;;;;5002968;28;20027;-69
2023/01/10 13:26:24;;;;;;;8.40;2.50;;;;;;;;;;4997694;28;20441;-68
2023/01/10 13:28:56;;;;;;;11.50;2.78;;;;;;;;;;5014692;28;20030;-68
2023/01/10 13:31:28;;;;;;;8.70;2.60;;;;;;;;;;5006323;28;20105;-68
2023/01/10 13:33:58;;;;;;;11.60;3.00;;;;;;;;;;5000607;28;20032;-69
2023/01/10 13:36:34;;;;;;;10.63;3.08;;;;;;;;;;5004207;28;20140;-69
2023/01/10 13:39:03;;;;;;;8.60;2.70;;;;;;;;;;5009440;28;20026;-69
2023/01/10 13:45:12;;;;;;;8.88;2.95;;;;;;;;;;5014333;28;20402;-69
2023/01/10 13:47:43;;;;;;;12.55;3.30;;;;;;;;;;4995096;28;20097;-69
2023/01/10 13:50:32;;;;;;;17.63;3.00;;;;;;;;;;4975034;28;20129;-68
2023/01/10 13:53:04;;;;;;;12.30;2.63;;;;;;;;;;5005682;28;20033;-68
2023/01/10 13:55:37;;;;;;;7.50;2.78;;;;;;;;;;5012194;28;20034;-68
2023/01/10 13:58:08;;;;;;;7.57;2.42;;;;;;;;;;4994633;28;20026;-68
2023/01/10 14:03:45;;;;;;;6.68;2.60;;;;;;;;;;5000321;28;20077;-68
2023/01/10 14:06:29;;;;;;;7.90;2.55;;;;;;;;;;4983549;28;20032;-68
2023/01/10 14:08:54;;;;;;;10.85;2.70;;;;;;;;;;5003231;28;20045;-68
2023/01/10 14:11:27;;;;;;;12.25;3.35;;;;;;;;;;5003700;28;20030;-68
2023/01/10 14:13:59;;;;;;;9.07;2.63;;;;;;;;;;5013733;28;20026;-68
2023/01/10 14:16:34;;;;;;;7.57;2.88;;;;;;;;;;5007151;28;20019;-68
2023/01/10 14:19:03;;;;;;;7.60;2.25;;;;;;;;;;4994119;28;20033;-68
2023/01/10 14:21:32;;;;;;;9.00;2.55;;;;;;;;;;5001035;28;20036;-69
2023/01/10 14:23:57;;;;;;;9.35;2.60;;;;;;;;;;5013570;28;20061;-68
2023/01/10 14:26:37;;;;;;;10.80;2.30;;;;;;;;;;5010431;28;20025;-68
2023/01/10 14:29:11;;;;;;;6.60;2.33;;;;;;;;;;4993877;28;20110;-67
2023/01/10 14:31:38;;;;;;;6.53;2.30;;;;;;;;;;4993972;28;20041;-69
2023/01/10 14:34:09;;;;;;;18.08;3.00;;;;;;;;;;5013095;28;20072;-68
2023/01/10 14:36:45;;;;;;;12.57;2.90;;;;;;;;;;5012808;28;20037;-68
2023/01/10 14:39:13;;;;;;;12.35;3.03;;;;;;;;;;4996962;28;20027;-68
2023/01/10 14:41:50;;;;;;;12.05;3.83;;;;;;;;;;4993478;28;20488;-68
2023/01/10 14:44:21;;;;;;;11.50;2.53;;;;;;;;;;5004488;28;20111;-68
2023/01/10 14:46:49;;;;;;;9.63;2.92;;;;;;;;;;4997769;28;20058;-70
2023/01/10 14:49:24;;;;;;;12.65;3.25;;;;;;;;;;4988791;28;20033;-67
2023/01/10 14:51:50;;;;;;;17.35;3.08;;;;;;;;;;4983122;28;20332;-67
2023/01/10 14:54:18;;;;;;;10.82;2.83;;;;;;;;;;4983318;28;20037;-68
2023/01/10 14:56:49;;;;;;;7.75;2.55;;;;;;;;;;4984516;28;20027;-67
2023/01/10 14:59:18;;;;;;;8.20;2.50;;;;;;;;;;4991469;28;20108;-67
2023/01/10 15:01:47;;;;;;;12.35;3.33;;;;;;;;;;5012868;28;20080;-68
2023/01/10 15:04:18;;;;;;;10.07;2.92;;;;;;;;;;5012752;28;20026;-68
2023/01/10 15:06:58;;;;;;;9.63;3.03;;;;;;;;;;5010119;28;20036;-67
2023/01/10 15:09:25;;;;;;;;;;;;;;;;;;4991506;28;20068;-67